createdAt,value
2018-01-05T00:01:40.236Z,50.31
2018-01-05T00:04:06.265Z,50.00
2018-01-05T00:06:32.235Z,49.53
2018-01-05T00:08:58.179Z,49.40
2018-01-05T00:11:25.252Z,49.02
2018-01-05T00:13:51.237Z,49.24
2018-01-05T00:16:17.248Z,49.59
2018-01-05T00:18:43.215Z,49.54
2018-01-05T00:21:09.229Z,49.15
2018-01-05T00:23:35.206Z,49.90
2018-01-05T00:26:01.185Z,49.81
2018-01-05T00:28:27.164Z,49.82
2018-01-05T00:30:56.590Z,49.88
2018-01-05T00:33:22.581Z,50.41
2018-01-05T00:35:48.563Z,50.62
2018-01-05T00:38:14.559Z,50.53
2018-01-05T00:40:40.517Z,50.88
2018-01-05T00:43:06.516Z,50.68
2018-01-05T00:45:32.496Z,50.52
2018-01-05T00:47:58.505Z,51.17
2018-01-05T00:50:24.594Z,50.62
2018-01-05T00:52:50.568Z,50.60
2018-01-05T00:57:48.506Z,49.78
2018-01-05T01:00:14.652Z,49.92
2018-01-05T01:02:40.645Z,50.31
2018-01-05T01:05:06.666Z,50.33
2018-01-05T01:07:32.622Z,49.79
2018-01-05T01:09:58.766Z,49.38
2018-01-05T01:12:24.733Z,49.29
2018-01-05T01:14:50.691Z,50.50
2018-01-05T01:17:16.692Z,49.75
2018-01-05T01:19:42.695Z,50.38
2018-01-05T01:22:08.709Z,50.35
2018-01-05T01:24:34.698Z,50.85
2018-01-05T01:27:00.665Z,50.07
2018-01-05T01:29:27.720Z,50.95
2018-01-05T01:31:53.686Z,50.19
2018-01-05T01:34:19.662Z,50.93
2018-01-05T01:36:45.631Z,51.02
2018-01-05T01:39:11.614Z,50.75
2018-01-05T01:41:37.585Z,51.04
2018-01-05T01:44:03.610Z,50.98
2018-01-05T01:46:29.642Z,50.64
2018-01-05T01:48:55.598Z,49.96
2018-01-05T01:51:21.557Z,49.54
2018-01-05T01:53:47.518Z,50.62
2018-01-05T01:56:13.513Z,49.92
2018-01-05T01:58:39.536Z,50.17
2018-01-05T02:01:05.439Z,49.93
2018-01-05T02:03:31.436Z,49.90
2018-01-05T02:05:57.420Z,50.23
2018-01-05T02:08:23.386Z,50.15
2018-01-05T02:10:49.358Z,50.29
2018-01-05T02:13:15.367Z,50.10
2018-01-05T02:15:41.326Z,51.03
2018-01-05T02:18:07.333Z,51.19
2018-01-05T02:20:37.412Z,51.32
2018-01-05T02:23:03.378Z,51.37
2018-01-05T02:25:29.350Z,51.37
2018-01-05T02:27:55.306Z,51.42
2018-01-05T02:30:21.300Z,51.29
2018-01-05T02:32:47.292Z,51.21
2018-01-05T02:35:13.282Z,50.35
2018-01-05T02:37:39.259Z,50.23
2018-01-05T02:40:05.253Z,50.23
2018-01-05T02:42:31.246Z,50.04
2018-01-05T02:44:57.242Z,50.32
2018-01-05T02:47:23.251Z,50.52
2018-01-05T02:49:49.241Z,50.60
2018-01-05T02:52:15.256Z,50.62
2018-01-05T02:54:41.236Z,51.04
2018-01-05T02:57:07.218Z,50.38
2018-01-05T02:59:33.228Z,50.94
2018-01-05T03:01:59.163Z,51.49
2018-01-05T03:04:25.158Z,51.58
2018-01-05T03:06:51.137Z,51.28
2018-01-05T03:09:17.119Z,51.79
2018-01-05T03:11:43.094Z,51.46
2018-01-05T03:14:09.067Z,51.23
2018-01-05T03:16:35.055Z,51.63
2018-01-05T03:19:01.032Z,51.82
2018-01-05T03:21:27.120Z,51.11
2018-01-05T03:23:53.448Z,50.47
2018-01-05T03:26:19.415Z,50.55
2018-01-05T03:28:45.428Z,50.68
2018-01-05T03:31:15.803Z,50.43
2018-01-05T03:33:41.786Z,50.53
2018-01-05T03:36:07.769Z,50.92
2018-01-05T03:38:33.761Z,50.86
2018-01-05T03:40:59.745Z,50.71
2018-01-05T03:43:25.693Z,50.87
2018-01-05T03:45:51.659Z,51.12
2018-01-05T03:48:17.622Z,51.72
2018-01-05T03:50:43.604Z,51.09
2018-01-05T03:53:09.657Z,50.64
2018-01-05T03:55:35.643Z,50.46
2018-01-05T03:58:01.616Z,50.45
2018-01-05T04:00:27.636Z,50.51
2018-01-05T04:02:53.602Z,50.54
2018-01-05T04:05:19.566Z,50.46
2018-01-05T04:07:49.466Z,50.45
2018-01-05T04:10:15.442Z,50.20
2018-01-05T04:12:41.435Z,49.84
2018-01-05T04:15:07.387Z,50.02
2018-01-05T04:17:33.360Z,49.90
2018-01-05T04:19:59.325Z,49.57
2018-01-05T04:22:25.363Z,49.63
2018-01-05T04:24:51.323Z,49.80
2018-01-05T04:27:17.300Z,49.69
2018-01-05T04:29:43.279Z,49.72
2018-01-05T04:32:09.230Z,49.80
2018-01-05T04:34:35.177Z,49.92
2018-01-05T04:37:01.138Z,49.78
2018-01-05T04:39:27.134Z,49.74
2018-01-05T04:41:53.115Z,50.03
2018-01-05T04:44:19.087Z,49.81
2018-01-05T04:46:45.067Z,49.87
2018-01-05T04:49:11.045Z,49.94
2018-01-05T04:51:37.073Z,50.03
2018-01-05T04:54:03.045Z,49.81
2018-01-05T04:56:29.024Z,50.00
2018-01-05T04:58:55.018Z,50.07
2018-01-05T05:01:21.006Z,49.83
2018-01-05T05:03:46.973Z,49.81
2018-01-05T05:06:12.973Z,49.85
2018-01-05T05:08:38.981Z,49.72
2018-01-05T05:11:04.936Z,49.98
2018-01-05T05:13:30.916Z,49.81
2018-01-05T05:15:56.921Z,49.98
2018-01-05T05:18:22.898Z,50.15
2018-01-05T05:20:48.895Z,50.22
2018-01-05T05:23:14.854Z,50.12
2018-01-05T05:25:40.839Z,50.36
2018-01-05T05:28:06.794Z,50.34
2018-01-05T05:30:32.788Z,50.47
2018-01-05T05:32:58.768Z,50.84
2018-01-05T05:35:24.739Z,50.41
2018-01-05T05:37:50.784Z,50.03
2018-01-05T05:40:16.754Z,50.35
2018-01-05T05:42:42.727Z,50.68
2018-01-05T05:45:08.769Z,50.47
2018-01-05T05:47:34.730Z,50.02
2018-01-05T05:50:00.701Z,50.20
2018-01-05T05:52:26.684Z,50.03
2018-01-05T05:54:52.651Z,49.97
2018-01-05T05:57:18.626Z,49.98
2018-01-05T05:59:44.582Z,50.24
2018-01-05T06:02:10.526Z,50.12
2018-01-05T06:04:36.467Z,50.22
2018-01-05T06:07:02.421Z,50.23
2018-01-05T06:09:28.374Z,50.28
2018-01-05T06:11:54.383Z,50.50
2018-01-05T06:14:20.348Z,50.47
2018-01-05T06:16:46.340Z,50.37
2018-01-05T06:19:13.246Z,50.48
2018-01-05T06:21:39.462Z,50.49
2018-01-05T06:24:05.441Z,50.35
2018-01-05T06:26:31.387Z,50.16
2018-01-05T06:28:57.378Z,50.42
2018-01-05T06:31:23.331Z,50.45
2018-01-05T06:33:49.298Z,50.08
2018-01-05T06:36:15.259Z,50.21
2018-01-05T06:38:41.228Z,49.98
2018-01-05T06:41:07.226Z,49.96
2018-01-05T06:43:33.177Z,50.04
2018-01-05T06:45:59.249Z,50.02
2018-01-05T06:48:25.264Z,49.93
2018-01-05T06:50:51.246Z,50.04
2018-01-05T06:53:17.211Z,50.03
2018-01-05T06:55:43.163Z,50.07
2018-01-05T06:58:09.128Z,50.15
2018-01-05T07:00:35.099Z,50.18
2018-01-05T07:03:01.060Z,50.56
2018-01-05T07:05:27.030Z,50.33
2018-01-05T07:07:53.078Z,50.01
2018-01-05T07:10:19.026Z,50.20
2018-01-05T07:12:44.987Z,49.90
2018-01-05T07:15:10.973Z,50.02
2018-01-05T07:17:36.958Z,50.11
2018-01-05T07:20:02.980Z,50.34
2018-01-05T07:22:28.943Z,50.17
2018-01-05T07:24:54.930Z,50.01
2018-01-05T07:27:20.893Z,50.00
2018-01-05T07:29:46.837Z,50.01
2018-01-05T07:34:43.936Z,49.75
2018-01-05T07:37:09.913Z,49.92
2018-01-05T07:39:35.870Z,49.75
2018-01-05T07:42:01.854Z,49.99
2018-01-05T07:44:27.824Z,49.92
2018-01-05T07:46:53.818Z,50.01
2018-01-05T07:49:19.783Z,50.00
2018-01-05T07:51:45.762Z,50.05
2018-01-05T07:54:11.755Z,49.69
2018-01-05T07:56:43.747Z,49.93
2018-01-05T07:59:09.712Z,50.64
2018-01-05T08:01:35.689Z,50.10
2018-01-05T08:04:01.689Z,50.09
2018-01-05T08:06:27.680Z,50.07
2018-01-05T08:08:53.694Z,49.86
2018-01-05T08:11:19.715Z,50.07
2018-01-05T08:13:45.679Z,50.00
2018-01-05T08:16:11.635Z,49.48
2018-01-05T08:18:37.614Z,49.39
2018-01-05T08:21:03.726Z,49.64
2018-01-05T08:23:29.691Z,49.48
2018-01-05T08:25:55.684Z,49.76
2018-01-05T08:28:21.676Z,49.63
2018-01-05T08:33:20.737Z,49.67
2018-01-05T08:35:46.749Z,49.65
2018-01-05T08:38:12.763Z,49.73
2018-01-05T08:40:38.748Z,50.43
2018-01-05T08:43:04.730Z,49.68
2018-01-05T08:45:30.700Z,49.67
2018-01-05T08:47:56.674Z,49.68
2018-01-05T08:50:22.663Z,49.52
2018-01-05T08:52:48.659Z,49.63
2018-01-05T08:55:14.680Z,49.76
2018-01-05T08:57:40.653Z,49.56
2018-01-05T09:00:06.630Z,49.51
2018-01-05T09:02:32.602Z,49.43
2018-01-05T09:04:58.585Z,49.59
2018-01-05T09:07:24.554Z,49.53
2018-01-05T09:09:50.508Z,49.33
2018-01-05T09:12:16.519Z,49.66
2018-01-05T09:14:42.523Z,49.40
2018-01-05T09:17:08.528Z,49.53
2018-01-05T09:19:38.393Z,49.60
2018-01-05T09:22:04.350Z,49.79
2018-01-05T09:24:30.463Z,49.73
2018-01-05T09:26:56.477Z,49.75
2018-01-05T09:29:22.427Z,50.06
2018-01-05T09:31:49.527Z,49.86
2018-01-05T09:34:15.494Z,49.73
2018-01-05T09:36:41.599Z,49.16
2018-01-05T09:39:07.594Z,49.10
2018-01-05T09:41:33.654Z,49.01
2018-01-05T09:43:59.726Z,49.10
2018-01-05T09:46:25.716Z,49.18
2018-01-05T09:48:51.679Z,49.22
2018-01-05T09:51:17.693Z,50.20
2018-01-05T09:53:43.654Z,49.58
2018-01-05T09:56:09.656Z,49.37
2018-01-05T09:58:35.832Z,49.38
2018-01-05T10:01:01.788Z,49.46
2018-01-05T10:03:27.762Z,49.56
2018-01-05T10:05:53.744Z,49.68
2018-01-05T10:08:24.302Z,49.85
2018-01-05T10:10:51.324Z,49.74
2018-01-05T10:13:19.396Z,49.80
2018-01-05T10:15:45.394Z,50.03
2018-01-05T10:18:11.366Z,50.51
2018-01-05T10:20:39.342Z,50.02
2018-01-05T10:25:38.567Z,50.04
2018-01-05T10:28:05.586Z,49.71
2018-01-05T10:30:31.607Z,50.01
2018-01-05T10:35:30.749Z,50.11
2018-01-05T10:37:56.744Z,49.74
2018-01-05T10:40:22.740Z,49.78
2018-01-05T10:42:48.719Z,50.36
2018-01-05T10:45:14.683Z,49.90
2018-01-05T10:47:40.662Z,49.84
2018-01-05T10:50:06.616Z,49.81
2018-01-05T10:52:32.576Z,49.88
2018-01-05T10:54:58.540Z,50.04
2018-01-05T10:57:24.531Z,49.83
2018-01-05T11:04:53.885Z,49.73
2018-01-05T11:07:19.851Z,49.66
2018-01-05T11:09:45.875Z,49.74
2018-01-05T11:12:11.842Z,49.98
2018-01-05T11:14:37.816Z,49.79
2018-01-05T11:17:03.800Z,50.24
2018-01-05T11:19:29.778Z,50.41
2018-01-05T11:21:55.761Z,50.50
2018-01-05T11:24:21.765Z,50.49
2018-01-05T11:26:47.743Z,50.56
2018-01-05T11:29:13.742Z,50.38
2018-01-05T11:31:39.712Z,50.23
2018-01-05T11:34:05.689Z,50.48
2018-01-05T11:36:31.696Z,50.30
2018-01-05T11:38:57.652Z,51.01
2018-01-05T11:41:23.631Z,50.58
2018-01-05T11:43:49.647Z,50.66
2018-01-05T11:46:15.671Z,50.71
2018-01-05T11:48:41.644Z,50.67
2018-01-05T11:51:07.686Z,50.88
2018-01-05T11:53:33.674Z,50.80
2018-01-05T11:55:59.643Z,50.77
2018-01-05T11:58:25.703Z,50.77
2018-01-05T12:00:51.757Z,50.96
2018-01-05T12:03:17.788Z,51.06
2018-01-05T12:05:43.752Z,51.14
2018-01-05T12:08:10.646Z,51.17
2018-01-05T12:10:36.637Z,51.08
2018-01-05T12:13:02.614Z,51.06
2018-01-05T12:15:29.217Z,51.16
2018-01-05T12:17:56.064Z,50.95
2018-01-05T12:20:22.068Z,50.71
2018-01-05T12:22:48.062Z,50.81
2018-01-05T12:25:14.767Z,50.91
2018-01-05T12:27:40.714Z,50.97
2018-01-05T12:30:06.807Z,50.93
2018-01-05T12:32:32.865Z,51.38
2018-01-05T12:34:58.836Z,52.17
2018-01-05T12:37:24.827Z,51.48
2018-01-05T12:39:54.118Z,51.42
2018-01-05T12:42:20.197Z,51.23
2018-01-05T12:44:46.248Z,51.20
2018-01-05T12:47:12.285Z,51.17
2018-01-05T12:49:38.298Z,51.06
2018-01-05T12:52:04.323Z,51.07
2018-01-05T13:04:35.959Z,50.87
2018-01-05T13:07:01.961Z,50.55
2018-01-05T13:09:27.923Z,50.54
2018-01-05T13:11:53.907Z,50.55
2018-01-05T13:14:19.906Z,50.56
2018-01-05T13:16:45.926Z,50.72
2018-01-05T13:19:11.892Z,50.56
2018-01-05T13:21:41.975Z,50.60
2018-01-05T13:24:07.926Z,51.13
2018-01-05T13:26:33.982Z,51.06
2018-01-05T13:28:59.911Z,50.82
2018-01-05T13:31:29.246Z,50.98
2018-01-05T13:33:55.299Z,50.81
2018-01-05T13:36:21.274Z,50.82
2018-01-05T13:38:47.214Z,50.62
2018-01-05T13:41:13.260Z,50.66
2018-01-05T13:43:39.262Z,50.61
2018-01-05T13:46:05.306Z,50.62
2018-01-05T13:48:31.293Z,50.45
2018-01-05T13:50:57.300Z,50.47
2018-01-05T13:53:23.319Z,50.75
2018-01-05T13:55:49.374Z,50.56
2018-01-05T13:58:15.369Z,50.47
2018-01-05T14:00:41.342Z,50.61
2018-01-05T14:03:07.323Z,50.56
2018-01-05T14:05:33.293Z,50.36
2018-01-05T14:07:59.250Z,50.47
2018-01-05T14:10:25.258Z,50.89
2018-01-05T14:12:51.231Z,50.69
2018-01-05T14:15:17.227Z,50.73
2018-01-05T14:17:43.240Z,50.83
2018-01-05T14:20:09.271Z,50.59
2018-01-05T14:22:35.276Z,50.83
2018-01-05T14:25:01.234Z,50.74
2018-01-05T14:27:27.277Z,50.62
2018-01-05T14:29:53.217Z,50.57
2018-01-05T14:32:19.234Z,50.56
2018-01-05T14:34:45.235Z,50.67
2018-01-05T14:37:12.275Z,50.52
2018-01-05T14:39:38.324Z,50.44
2018-01-05T14:42:04.304Z,50.46
2018-01-05T14:44:30.360Z,50.39
2018-01-05T14:46:56.424Z,50.20
2018-01-05T14:49:22.424Z,50.15
2018-01-05T14:59:23.112Z,50.38
2018-01-05T15:01:49.088Z,50.55
2018-01-05T15:04:15.083Z,50.58
2018-01-05T15:11:44.702Z,50.64
2018-01-05T15:14:10.715Z,50.76
2018-01-05T15:16:36.693Z,50.72
2018-01-05T15:19:02.664Z,50.51
2018-01-05T15:21:29.736Z,50.50
2018-01-05T15:26:27.533Z,50.90
2018-01-05T15:28:53.544Z,51.04
2018-01-05T15:31:19.524Z,50.61
2018-01-05T15:33:45.502Z,51.85
2018-01-05T15:36:11.499Z,50.94
2018-01-05T15:38:37.485Z,50.70
2018-01-05T15:41:03.483Z,50.57
2018-01-05T15:43:29.467Z,50.84
2018-01-05T15:45:55.620Z,50.60
2018-01-05T15:48:21.677Z,50.79
2018-01-05T15:50:47.694Z,50.66
2018-01-05T15:53:13.704Z,50.70
2018-01-05T15:55:41.174Z,50.94
2018-01-05T15:58:08.005Z,50.75
2018-01-05T16:00:35.566Z,50.77
2018-01-05T16:05:34.828Z,50.84
2018-01-05T16:08:00.970Z,50.91
2018-01-05T16:10:26.996Z,50.66
2018-01-05T16:17:57.208Z,50.72
2018-01-05T16:20:23.258Z,50.72
2018-01-05T16:22:51.835Z,50.49
2018-01-05T16:27:50.903Z,50.57
2018-01-05T16:30:16.894Z,50.55
2018-01-05T16:32:42.990Z,50.82
2018-01-05T16:35:09.098Z,51.08
2018-01-05T16:37:35.460Z,50.65
2018-01-05T16:40:01.443Z,51.37
2018-01-05T16:42:27.422Z,51.13
2018-01-05T16:44:53.407Z,51.23
2018-01-05T16:47:19.355Z,51.32
2018-01-05T16:49:45.407Z,51.24
2018-01-05T16:52:11.411Z,51.29
2018-01-05T16:54:37.481Z,51.37
2018-01-05T16:57:03.463Z,51.13
2018-01-05T16:59:29.487Z,51.36
2018-01-05T17:01:55.488Z,51.33
2018-01-05T17:04:21.453Z,50.90
2018-01-05T17:06:47.423Z,50.88
2018-01-05T17:11:50.269Z,52.18
2018-01-05T17:14:16.233Z,51.34
2018-01-05T17:16:42.195Z,51.37
2018-01-05T17:19:08.155Z,51.26
2018-01-05T17:21:34.196Z,51.16
2018-01-05T17:24:00.184Z,51.44
2018-01-05T17:26:26.168Z,51.51
2018-01-05T17:28:52.144Z,51.64
2018-01-05T17:31:18.122Z,51.59
2018-01-05T17:33:44.116Z,51.42
2018-01-05T17:36:10.095Z,51.29
2018-01-05T17:38:36.064Z,51.41
2018-01-05T17:41:02.028Z,51.46
2018-01-05T17:43:28.031Z,51.33
2018-01-05T17:45:54.001Z,51.16
2018-01-05T17:48:19.994Z,51.19
2018-01-05T17:50:45.965Z,51.12
2018-01-05T17:53:11.973Z,51.25
2018-01-05T17:55:38.019Z,51.17
2018-01-05T17:58:04.003Z,51.10
2018-01-05T18:00:30.050Z,51.24
2018-01-05T18:02:59.140Z,51.20
2018-01-05T18:05:25.099Z,51.29
2018-01-05T18:07:51.516Z,51.34
2018-01-05T18:10:18.815Z,51.17
2018-01-05T18:12:45.141Z,51.24
2018-01-05T18:15:11.999Z,51.56
2018-01-05T18:17:38.866Z,51.47
2018-01-05T18:20:04.876Z,51.42
2018-01-05T18:22:31.199Z,51.74
2018-01-05T18:24:57.467Z,51.47
2018-01-05T18:27:23.549Z,51.59
2018-01-05T18:29:49.924Z,51.22
2018-01-05T18:32:15.910Z,51.40
2018-01-05T18:34:42.147Z,51.20
2018-01-05T18:37:08.319Z,51.26
2018-01-05T18:39:34.467Z,51.18
2018-01-05T18:42:00.524Z,51.20
2018-01-05T18:44:26.672Z,51.07
2018-01-05T18:46:52.669Z,50.82
2018-01-05T18:49:18.907Z,50.68
2018-01-05T18:51:44.906Z,50.69
2018-01-05T18:54:11.080Z,50.89
2018-01-05T18:56:37.146Z,51.09
2018-01-05T18:59:03.146Z,51.25
2018-01-05T19:01:29.363Z,51.31
2018-01-05T19:03:55.646Z,51.91
2018-01-05T19:06:21.934Z,51.53
2018-01-05T19:08:49.390Z,51.00
2018-01-05T19:11:15.803Z,51.07
2018-01-05T19:13:41.953Z,50.89
2018-01-05T19:16:08.318Z,51.17
2018-01-05T19:18:34.342Z,50.83
2018-01-05T19:21:00.326Z,51.16
2018-01-05T19:23:26.455Z,50.84
2018-01-05T19:25:54.562Z,50.62
2018-01-05T19:28:20.755Z,50.71
2018-01-05T19:30:47.005Z,50.88
2018-01-05T19:33:12.993Z,50.69
2018-01-05T19:35:39.049Z,50.53
2018-01-05T19:38:06.229Z,50.41
2018-01-05T19:40:33.226Z,50.56
2018-01-05T19:42:59.204Z,51.00
2018-01-05T19:45:25.229Z,50.80
2018-01-05T19:47:51.237Z,50.94
2018-01-05T19:50:17.264Z,51.00
2018-01-05T19:52:43.292Z,51.15
2018-01-05T19:55:09.270Z,51.11
2018-01-05T19:57:35.276Z,51.10
2018-01-05T20:00:01.837Z,50.98
2018-01-05T20:02:27.833Z,50.96
2018-01-05T20:04:53.839Z,50.95
2018-01-05T20:07:19.853Z,51.04
2018-01-05T20:09:45.862Z,50.71
2018-01-05T20:12:12.539Z,50.75
2018-01-05T20:14:38.538Z,50.96
2018-01-05T20:17:04.516Z,50.89
2018-01-05T20:22:01.768Z,51.09
2018-01-05T20:24:27.745Z,50.94
2018-01-05T20:26:53.738Z,50.90
2018-01-05T20:29:19.846Z,51.06
2018-01-05T20:31:45.911Z,51.18
2018-01-05T20:34:11.932Z,51.30
2018-01-05T20:36:38.120Z,51.11
2018-01-05T20:41:40.820Z,51.35
2018-01-05T20:44:07.024Z,51.31
2018-01-05T20:46:33.360Z,51.17
2018-01-05T20:48:59.438Z,51.34
2018-01-05T20:51:25.399Z,51.17
2018-01-05T20:53:51.383Z,50.94
2018-01-05T20:56:17.585Z,51.18
2018-01-05T20:58:43.975Z,51.08
2018-01-05T21:01:10.123Z,51.11
2018-01-05T21:03:41.830Z,51.15
2018-01-05T21:08:41.567Z,51.05
2018-01-05T21:11:09.450Z,51.82
2018-01-05T21:13:35.786Z,51.33
2018-01-05T21:16:01.877Z,51.31
2018-01-05T21:18:28.040Z,50.95
2018-01-05T21:21:00.241Z,50.99
2018-01-05T21:26:00.504Z,50.97
2018-01-05T21:28:26.687Z,51.20
2018-01-05T21:30:54.055Z,51.32
2018-01-05T21:33:23.852Z,51.85
2018-01-05T21:35:49.986Z,51.47
2018-01-05T21:38:16.031Z,51.50
2018-01-05T21:40:42.362Z,51.49
2018-01-05T21:43:08.651Z,51.36
2018-01-05T21:45:34.906Z,51.35
2018-01-05T21:48:01.281Z,51.42
2018-01-05T21:50:27.283Z,51.65
2018-01-05T21:52:53.688Z,51.52
2018-01-05T21:55:20.034Z,51.42
2018-01-05T21:57:46.147Z,51.28
2018-01-05T22:00:12.214Z,51.24
2018-01-05T22:02:38.183Z,51.31
2018-01-05T22:05:04.279Z,50.97
2018-01-05T22:07:30.245Z,51.29
2018-01-05T22:10:00.029Z,51.35
2018-01-05T22:12:26.007Z,51.19
2018-01-05T22:14:51.993Z,51.36
2018-01-05T22:17:17.976Z,51.48
2018-01-05T22:19:44.011Z,51.47
2018-01-05T22:22:10.010Z,51.33
2018-01-05T22:24:35.998Z,51.44
2018-01-05T22:27:01.979Z,51.49
2018-01-05T22:29:27.946Z,51.62
2018-01-05T22:31:54.175Z,51.91
2018-01-05T22:34:20.184Z,51.65
2018-01-05T22:36:46.184Z,51.57
2018-01-05T22:39:12.144Z,51.57
2018-01-05T22:41:40.244Z,51.67
2018-01-05T22:46:37.707Z,51.40
2018-01-05T22:49:05.803Z,51.38
2018-01-05T22:51:31.793Z,51.44
2018-01-05T22:53:57.754Z,51.32
2018-01-05T22:56:23.952Z,51.30
2018-01-05T22:58:49.988Z,51.45
2018-01-05T23:01:15.990Z,51.26
2018-01-05T23:03:41.965Z,51.57
2018-01-05T23:06:07.935Z,51.59
2018-01-05T23:08:33.899Z,51.61
2018-01-05T23:10:59.899Z,51.65
2018-01-05T23:13:25.874Z,51.94
2018-01-05T23:15:51.848Z,51.99
2018-01-05T23:18:17.823Z,51.79
2018-01-05T23:20:43.778Z,51.66
2018-01-05T23:23:09.746Z,51.69
2018-01-05T23:25:35.721Z,51.59
2018-01-05T23:28:01.710Z,52.60
2018-01-05T23:30:27.709Z,52.06
2018-01-05T23:32:53.688Z,51.23
2018-01-05T23:35:19.708Z,51.27
2018-01-05T23:37:45.689Z,51.50
2018-01-05T23:40:11.664Z,51.21
2018-01-05T23:42:37.716Z,51.48
2018-01-05T23:45:03.706Z,51.72
2018-01-05T23:47:29.697Z,51.59
2018-01-05T23:49:55.666Z,51.49
2018-01-05T23:52:21.634Z,51.75
2018-01-05T23:54:47.625Z,51.50
2018-01-05T23:57:13.581Z,51.43
2018-01-05T23:59:39.547Z,51.73
